Time;durP1;ratioP1;P1;durP2;ratioP2;P2;SDS_P1;SDS_P2;PMS_P1;PMS_P2;Temp;Humidity;BMP_temperature;BMP_pressure;BME280_temperature;BME280_humidity;BME280_pressure;Samples;Min_cycle;Max_cycle;Signal;HPM_P1;HPM_P2
2022/06/17 00:01:21;;;;;;;14.63;7.40;;;;;;;13.18;100.00;91332.38;5010910;28;20045;-67
2022/06/17 00:03:51;;;;;;;13.02;7.60;;;;;;;13.12;100.00;91333.59;5010745;28;20054;-67
2022/06/17 00:06:19;;;;;;;14.93;8.13;;;;;;;12.87;100.00;91313.78;5010910;28;20042;-67
2022/06/17 00:08:49;;;;;;;14.63;8.70;;;;;;;12.88;100.00;91318.00;5010590;28;20120;-67
2022/06/17 00:11:27;;;;;;;14.80;8.80;;;;;;;12.77;100.00;91306.84;5010814;28;20057;-67
2022/06/17 00:13:53;;;;;;;14.80;7.72;;;;;;;12.74;100.00;91312.81;5010732;28;20030;-67
2022/06/17 00:16:21;;;;;;;13.70;8.30;;;;;;;12.69;100.00;91309.50;5011069;28;20037;-67
2022/06/17 00:18:46;;;;;;;14.23;9.20;;;;;;;12.56;100.00;91303.19;5010751;28;20392;-67
2022/06/17 00:21:26;;;;;;;13.27;8.02;;;;;;;12.57;100.00;91310.09;5010684;28;20512;-67
2022/06/17 00:23:52;;;;;;;15.88;9.48;;;;;;;12.53;100.00;91301.16;5010652;28;20091;-67
2022/06/17 00:26:18;;;;;;;15.10;8.55;;;;;;;12.48;100.00;91299.44;5010694;28;20073;-67
2022/06/17 00:28:44;;;;;;;16.88;9.73;;;;;;;12.42;100.00;91299.88;5010605;28;20131;-67
2022/06/17 00:31:09;;;;;;;14.80;9.30;;;;;;;12.28;100.00;91290.09;5010613;28;20462;-67
2022/06/17 00:33:35;;;;;;;14.40;8.85;;;;;;;12.30;100.00;91295.91;5012594;28;20082;-67
2022/06/17 00:36:01;;;;;;;17.48;8.98;;;;;;;12.23;100.00;91298.25;5013977;28;20052;-67
2022/06/17 00:38:33;;;;;;;14.73;7.93;;;;;;;12.19;100.00;91288.50;5014088;28;20515;-67
2022/06/17 00:41:11;;;;;;;20.05;8.43;;;;;;;12.13;100.00;91293.19;5013313;28;20442;-67
2022/06/17 00:43:37;;;;;;;15.23;8.05;;;;;;;12.14;100.00;91289.41;5013858;28;20034;-67
2022/06/17 00:46:20;;;;;;;13.82;8.07;;;;;;;12.17;100.00;91288.81;5013885;28;20033;-67
2022/06/17 00:49:00;;;;;;;15.43;8.63;;;;;;;12.18;100.00;91284.28;5013833;28;20408;-67
2022/06/17 00:51:30;;;;;;;15.90;9.05;;;;;;;12.14;100.00;91277.97;5013695;28;20077;-67
2022/06/17 00:54:06;;;;;;;12.90;7.40;;;;;;;12.06;100.00;91273.41;5013682;28;20036;-67
2022/06/17 00:56:34;;;;;;;16.27;8.88;;;;;;;12.09;100.00;91270.09;5013679;28;20034;-67
2022/06/17 00:59:07;;;;;;;14.15;8.52;;;;;;;12.08;100.00;91268.53;5013553;28;20030;-67
2022/06/17 01:01:56;;;;;;;14.65;7.93;;;;;;;12.09;100.00;91267.44;5013574;28;20815;-67
2022/06/17 01:04:49;;;;;;;12.02;7.97;;;;;;;12.12;100.00;91270.28;5012285;28;20061;-66
2022/06/17 01:07:24;;;;;;;16.73;8.63;;;;;;;12.07;100.00;91262.41;5013425;28;20400;-66
2022/06/17 01:09:57;;;;;;;14.07;7.82;;;;;;;12.07;100.00;91265.09;5013323;28;20424;-67
2022/06/17 01:12:27;;;;;;;13.15;7.60;;;;;;;12.02;100.00;91264.44;5013297;28;20038;-67
2022/06/17 01:14:53;;;;;;;11.07;7.60;;;;;;;11.91;100.00;91267.38;5013279;28;20618;-67
2022/06/17 01:17:19;;;;;;;11.63;6.97;;;;;;;11.84;100.00;91272.38;5013326;28;20030;-67
2022/06/17 01:19:46;;;;;;;10.65;6.85;;;;;;;11.79;100.00;91267.16;5013246;28;20129;-66
2022/06/17 01:22:27;;;;;;;12.43;7.45;;;;;;;11.72;100.00;91261.47;5011710;28;20133;-66
2022/06/17 01:25:07;;;;;;;13.05;8.48;;;;;;;11.63;100.00;91260.63;5013158;28;20034;-66
2022/06/17 01:27:40;;;;;;;13.40;7.88;;;;;;;11.56;100.00;91247.75;5013066;28;20095;-67
2022/06/17 01:30:09;;;;;;;13.73;7.07;;;;;;;11.62;100.00;91248.41;5013091;28;20026;-67
2022/06/17 01:32:41;;;;;;;17.90;8.57;;;;;;;11.74;100.00;91250.50;5012907;28;20034;-67
2022/06/17 01:35:08;;;;;;;12.70;7.40;;;;;;;11.83;100.00;91244.13;5012955;28;20038;-67
2022/06/17 01:37:34;;;;;;;14.57;8.13;;;;;;;11.83;100.00;91243.34;5012895;28;20034;-67
2022/06/17 01:39:59;;;;;;;11.45;7.72;;;;;;;11.77;100.00;91242.66;5012844;28;20407;-67
2022/06/17 01:42:26;;;;;;;14.57;8.77;;;;;;;11.68;100.00;91245.31;5012696;28;20056;-66
2022/06/17 01:44:54;;;;;;;13.15;7.85;;;;;;;11.60;100.00;91240.72;5011820;28;20101;-66
2022/06/17 01:47:24;;;;;;;13.82;8.45;;;;;;;11.54;100.00;91239.28;5012682;28;20021;-66
2022/06/17 01:49:55;;;;;;;14.73;8.70;;;;;;;11.46;100.00;91225.91;5012715;28;20090;-66
2022/06/17 01:52:27;;;;;;;15.70;8.07;;;;;;;11.39;100.00;91229.03;5012422;28;20026;-66
2022/06/17 01:54:58;;;;;;;14.38;7.95;;;;;;;11.39;100.00;91223.69;5012514;28;20033;-67
2022/06/17 01:57:38;;;;;;;10.32;6.90;;;;;;;11.50;100.00;91224.19;5012597;28;20120;-67
2022/06/17 02:00:18;;;;;;;16.02;7.60;;;;;;;11.56;100.00;91225.66;5012550;28;20057;-67
2022/06/17 02:02:47;;;;;;;14.52;7.22;;;;;;;11.58;100.00;91229.59;5012315;28;20037;-67
2022/06/17 02:05:13;;;;;;;14.93;8.52;;;;;;;11.65;100.00;91227.25;5012425;28;20029;-66
2022/06/17 02:07:45;;;;;;;14.10;8.05;;;;;;;11.55;100.00;91224.88;5012349;28;20032;-66
2022/06/17 02:10:11;;;;;;;13.07;8.30;;;;;;;11.52;100.00;91233.50;5012213;28;20053;-66
2022/06/17 02:12:37;;;;;;;13.40;8.20;;;;;;;11.49;100.00;91231.41;5012346;28;20034;-66
2022/06/17 02:15:03;;;;;;;15.35;9.13;;;;;;;11.53;100.00;91236.94;5012303;28;20073;-67
2022/06/17 02:17:34;;;;;;;13.68;8.13;;;;;;;11.44;100.00;91228.88;5012159;28;20526;-66
2022/06/17 02:20:00;;;;;;;12.18;7.03;;;;;;;11.30;100.00;91236.16;5012108;28;20030;-67
2022/06/17 02:22:30;;;;;;;11.07;6.55;;;;;;;11.33;100.00;91235.56;5012026;28;20484;-66
2022/06/17 02:25:09;;;;;;;10.52;6.18;;;;;;;11.27;100.00;91244.78;5012081;28;20030;-66
2022/06/17 02:27:36;;;;;;;12.45;7.60;;;;;;;11.31;100.00;91256.38;5012040;28;20495;-66
2022/06/17 02:30:05;;;;;;;11.25;7.68;;;;;;;11.26;100.00;91249.31;5011925;28;20092;-67
2022/06/17 02:32:32;;;;;;;12.80;7.53;;;;;;;11.19;100.00;91259.59;5011956;28;20084;-67
2022/06/17 02:35:01;;;;;;;13.77;7.53;;;;;;;11.10;100.00;91246.25;5012134;28;20906;-68
2022/06/17 02:37:28;;;;;;;19.17;8.57;;;;;;;11.06;100.00;91250.59;5010652;28;20041;-68
2022/06/17 02:39:56;;;;;;;15.18;7.82;;;;;;;10.90;100.00;91252.06;5011837;28;20033;-68
2022/06/17 02:42:28;;;;;;;13.52;8.07;;;;;;;10.83;100.00;91256.22;5010161;28;20030;-68
2022/06/17 02:45:19;;;;;;;12.65;7.97;;;;;;;10.83;100.00;91257.00;5011949;28;20026;-68
2022/06/17 02:47:45;;;;;;;16.50;8.68;;;;;;;10.84;100.00;91261.22;5011786;28;20084;-68
2022/06/17 02:50:17;;;;;;;17.08;9.48;;;;;;;10.84;100.00;91266.56;5011622;28;20487;-68
2022/06/17 02:52:44;;;;;;;14.95;9.02;;;;;;;10.89;100.00;91265.63;5011486;28;20475;-68
2022/06/17 02:55:15;;;;;;;17.15;9.75;;;;;;;10.90;100.00;91265.38;5011381;28;20540;-67
2022/06/17 02:57:45;;;;;;;15.45;8.93;;;;;;;10.93;100.00;91266.63;5011632;28;20107;-68
2022/06/17 03:00:13;;;;;;;21.35;10.45;;;;;;;10.93;100.00;91266.63;5011637;28;20112;-67
2022/06/17 03:02:42;;;;;;;18.95;9.52;;;;;;;10.96;100.00;91258.81;5011414;28;20044;-67
2022/06/17 03:05:21;;;;;;;16.27;9.60;;;;;;;11.03;100.00;91267.16;5011539;28;20069;-67
2022/06/17 03:07:47;;;;;;;17.65;9.43;;;;;;;11.08;100.00;91263.63;5011522;28;20032;-66
2022/06/17 03:10:24;;;;;;;16.60;9.00;;;;;;;11.17;100.00;91268.97;5011142;28;20041;-66
2022/06/17 03:12:56;;;;;;;11.90;7.30;;;;;;;11.03;100.00;91259.19;5011191;28;20404;-67
2022/06/17 03:15:23;;;;;;;15.55;8.48;;;;;;;11.04;100.00;91257.31;5011577;28;20040;-67
2022/06/17 03:17:48;;;;;;;15.40;7.88;;;;;;;11.04;100.00;91251.97;5011321;28;20026;-67
2022/06/17 03:20:37;;;;;;;15.25;7.60;;;;;;;11.10;100.00;91254.22;5011298;28;20507;-67
2022/06/17 03:23:08;;;;;;;12.95;8.27;;;;;;;11.18;100.00;91262.56;5010629;28;20094;-66
2022/06/17 03:25:44;;;;;;;14.50;8.40;;;;;;;11.27;100.00;91263.41;5011168;28;20030;-66
2022/06/17 03:28:14;;;;;;;15.05;8.13;;;;;;;11.29;100.00;91254.03;5011142;28;20037;-66
2022/06/17 03:30:50;;;;;;;11.20;7.07;;;;;;;11.45;100.00;91262.44;5011166;28;20496;-66
2022/06/17 03:33:17;;;;;;;10.82;6.97;;;;;;;11.43;100.00;91269.16;5011233;28;20058;-66
2022/06/17 03:35:45;;;;;;;15.77;7.75;;;;;;;11.38;100.00;91273.53;5011130;28;20042;-66
2022/06/17 03:38:19;;;;;;;12.40;8.00;;;;;;;11.31;100.00;91264.38;5011042;28;20084;-66
2022/06/17 03:40:51;;;;;;;12.07;6.90;;;;;;;11.26;100.00;91270.63;5011119;28;20026;-68
2022/06/17 03:43:26;;;;;;;10.52;6.45;;;;;;;11.23;100.00;91268.56;5011119;28;20026;-68
2022/06/17 03:46:05;;;;;;;16.77;7.53;;;;;;;11.30;100.00;91265.47;5011123;28;20033;-69
2022/06/17 03:48:46;;;;;;;12.70;7.57;;;;;;;11.39;100.00;91269.78;4993516;28;20139;-70
2022/06/17 03:51:18;;;;;;;15.18;8.05;;;;;;;11.48;100.00;91259.16;5010852;28;20423;-69
2022/06/17 03:53:45;;;;;;;21.85;11.48;;;;;;;11.57;100.00;91252.00;4993056;28;20062;-68
2022/06/17 03:56:33;;;;;;;12.90;7.38;;;;;;;11.73;100.00;91252.38;5010881;28;20491;-69
2022/06/17 03:59:04;;;;;;;13.70;7.43;;;;;;;11.65;100.00;91218.47;5010955;28;20490;-69
2022/06/17 04:01:55;;;;;;;12.63;6.75;;;;;;;11.99;100.00;91249.84;4993223;28;20034;-68
2022/06/17 04:04:39;;;;;;;11.75;6.97;;;;;;;12.25;100.00;91255.25;5010893;28;20028;-68
2022/06/17 04:07:05;;;;;;;10.80;7.10;;;;;;;12.35;100.00;91262.97;5011000;28;20058;-69
2022/06/17 04:09:37;;;;;;;13.85;8.30;;;;;;;12.44;100.00;91266.44;5014478;28;20081;-69
2022/06/17 04:12:26;;;;;;;11.45;7.28;;;;;;;12.47;100.00;91254.38;5014358;28;20060;-68
2022/06/17 04:14:58;;;;;;;13.18;6.57;;;;;;;12.54;100.00;91268.81;5014510;28;20088;-67
2022/06/17 04:17:29;;;;;;;10.85;7.32;;;;;;;12.57;100.00;91259.41;5014179;28;20455;-68
2022/06/17 04:20:19;;;;;;;15.48;7.78;;;;;;;12.75;100.00;91263.66;5014376;28;20038;-65
2022/06/17 04:22:50;;;;;;;12.00;7.60;;;;;;;12.97;100.00;91278.75;5014237;28;20033;-66
2022/06/17 04:25:31;;;;;;;10.80;7.13;;;;;;;13.10;100.00;91272.47;5014168;28;20037;-66
2022/06/17 04:28:03;;;;;;;13.77;7.97;;;;;;;13.32;100.00;91258.19;5014464;28;20455;-66
2022/06/17 04:30:33;;;;;;;11.23;6.68;;;;;;;13.39;100.00;91257.69;5014319;28;20041;-66
2022/06/17 04:33:02;;;;;;;13.02;7.03;;;;;;;13.52;100.00;91261.28;5014072;28;20034;-66
2022/06/17 04:35:29;;;;;;;11.98;6.72;;;;;;;13.69;100.00;91255.91;5014008;28;20048;-66
2022/06/17 04:37:54;;;;;;;11.70;7.28;;;;;;;13.85;100.00;91256.94;5014116;28;20017;-66
2022/06/17 04:40:36;;;;;;;12.02;6.85;;;;;;;14.12;100.00;91260.31;5014085;28;20032;-67
2022/06/17 04:43:09;;;;;;;8.95;6.53;;;;;;;14.20;100.00;91262.97;5013930;28;20032;-67
2022/06/17 04:45:34;;;;;;;;;;;;;;;14.34;100.00;91260.03;5013366;28;20105;-69
2022/06/17 04:48:00;;;;;;;13.30;7.18;;;;;;;14.31;100.00;91261.47;5013922;28;20059;-68
2022/06/17 04:50:28;;;;;;;11.68;6.50;;;;;;;14.37;100.00;91264.78;5013863;28;20097;-68
2022/06/17 04:52:55;;;;;;;10.68;7.38;;;;;;;14.48;100.00;91255.28;5013776;28;20026;-68
2022/06/17 04:55:28;;;;;;;12.43;7.45;;;;;;;14.56;100.00;91261.72;5013792;28;20022;-68
2022/06/17 04:57:53;;;;;;;10.15;7.07;;;;;;;14.50;100.00;91260.31;5028893;28;20034;-68
2022/06/17 05:00:25;;;;;;;12.90;6.80;;;;;;;14.56;100.00;91253.69;5013574;28;20036;-68
2022/06/17 05:02:51;;;;;;;13.07;7.03;;;;;;;14.61;100.00;91256.94;5013488;28;20041;-68
2022/06/17 05:05:27;;;;;;;10.57;6.65;;;;;;;14.79;100.00;91257.59;5013576;28;20029;-68
2022/06/17 05:07:54;;;;;;;12.13;7.57;;;;;;;14.82;100.00;91254.28;5013487;28;20034;-67
2022/06/17 05:10:26;;;;;;;9.20;6.22;;;;;;;15.00;100.00;91271.03;5013314;28;20046;-68
2022/06/17 05:13:10;;;;;;;9.88;6.88;;;;;;;15.15;100.00;91266.97;5013219;28;20030;-67
2022/06/17 05:15:36;;;;;;;10.52;6.82;;;;;;;15.35;100.00;91265.38;5013356;28;20030;-68
2022/06/17 05:18:02;;;;;;;10.00;6.38;;;;;;;15.52;100.00;91267.91;5013321;28;20076;-68
2022/06/17 05:20:27;;;;;;;10.90;6.65;;;;;;;15.71;100.00;91262.84;5013162;28;20046;-68
2022/06/17 05:23:04;;;;;;;10.23;6.90;;;;;;;15.97;100.00;91267.97;5013029;28;20072;-68
2022/06/17 05:25:39;;;;;;;9.25;6.53;;;;;;;16.15;100.00;91255.91;5013095;28;20030;-69
2022/06/17 05:28:07;;;;;;;9.75;6.68;;;;;;;16.33;100.00;91258.38;5013208;28;20029;-68
2022/06/17 05:30:38;;;;;;;12.90;7.15;;;;;;;16.54;100.00;91261.72;5013108;28;20109;-68
2022/06/17 05:33:03;;;;;;;7.93;6.03;;;;;;;16.74;100.00;91252.03;5012928;28;20026;-68
2022/06/17 05:35:28;;;;;;;8.60;5.95;;;;;;;16.89;100.00;91253.25;5013244;28;20514;-69
2022/06/17 05:37:54;;;;;;;8.88;5.95;;;;;;;16.94;100.00;91253.78;5012786;28;20105;-68
2022/06/17 05:40:20;;;;;;;7.57;5.75;;;;;;;17.20;100.00;91244.53;5012503;28;20082;-68
2022/06/17 05:42:47;;;;;;;9.55;6.60;;;;;;;17.53;100.00;91247.78;5012893;28;20029;-69
2022/06/17 05:45:19;;;;;;;9.15;6.70;;;;;;;17.76;100.00;91244.56;5013004;28;20072;-69
2022/06/17 05:47:45;;;;;;;9.43;6.97;;;;;;;17.79;100.00;91241.97;5012556;28;20026;-68
2022/06/17 05:50:12;;;;;;;9.65;7.72;;;;;;;19.90;100.00;91229.44;5012249;28;20403;-68
2022/06/17 05:52:52;;;;;;;13.00;6.90;;;;;;;23.53;76.71;91243.88;5012455;28;20032;-68
2022/06/17 05:55:20;;;;;;;10.50;6.15;;;;;;;25.69;61.76;91242.66;5012515;28;20045;-69
2022/06/17 05:57:46;;;;;;;11.98;8.75;;;;;;;27.77;54.23;91237.44;5012657;28;20562;-69
2022/06/17 06:00:13;;;;;;;7.88;6.15;;;;;;;28.31;50.95;91241.91;5012512;28;20117;-69
2022/06/17 06:02:39;;;;;;;8.13;6.22;;;;;;;30.07;46.52;91240.72;5012201;28;20077;-68
2022/06/17 06:05:07;;;;;;;8.82;5.78;;;;;;;31.88;42.57;91231.16;5012436;28;20112;-67
2022/06/17 06:07:32;;;;;;;6.97;5.53;;;;;;;33.02;40.84;91236.19;5012558;28;20033;-67
2022/06/17 06:09:58;;;;;;;7.65;5.55;;;;;;;33.89;38.73;91232.25;5012071;28;20050;-67
2022/06/17 06:12:53;;;;;;;6.15;5.47;;;;;;;32.47;40.07;91229.91;5012189;28;20028;-68
2022/06/17 06:15:10;;;;;;;8.95;6.60;;;;;;;33.10;38.19;91242.25;5012134;28;20029;-68
2022/06/17 06:17:35;;;;;;;9.07;5.95;;;;;;;31.55;39.42;91237.84;5012304;28;20073;-68
2022/06/17 06:20:01;;;;;;;7.10;5.30;;;;;;;34.11;37.23;91230.28;5012200;28;20125;-68
2022/06/17 06:22:27;;;;;;;8.60;5.25;;;;;;;34.79;36.80;91231.38;5012360;28;20045;-69
2022/06/17 06:24:53;;;;;;;9.90;5.40;;;;;;;33.11;37.16;91235.50;5012084;28;20417;-69
2022/06/17 06:27:18;;;;;;;6.78;5.72;;;;;;;31.50;41.11;91232.88;5012030;28;20026;-69
2022/06/17 06:29:45;;;;;;;7.35;6.15;;;;;;;32.17;39.24;91224.84;5011952;28;20389;-68
2022/06/17 06:32:11;;;;;;;10.48;6.45;;;;;;;31.65;39.38;91217.56;5011404;28;20022;-69
2022/06/17 06:34:36;;;;;;;6.93;5.57;;;;;;;31.81;39.62;91217.56;5011950;28;20499;-68
2022/06/17 06:37:02;;;;;;;9.68;5.95;;;;;;;30.64;40.70;91225.84;5011912;28;20479;-69
2022/06/17 06:39:27;;;;;;;7.28;5.53;;;;;;;33.60;37.58;91224.88;5011857;28;20077;-68
2022/06/17 06:41:53;;;;;;;7.32;5.15;;;;;;;35.25;35.95;91230.84;5011730;28;20064;-69
2022/06/17 06:44:19;;;;;;;10.82;7.72;;;;;;;33.59;36.55;91225.34;5010394;28;20534;-69
2022/06/17 06:46:44;;;;;;;6.80;5.72;;;;;;;33.49;39.31;91218.19;5010263;28;20029;-69
2022/06/17 06:49:10;;;;;;;9.63;6.63;;;;;;;31.43;39.34;91225.59;5011568;28;20037;-70
2022/06/17 06:51:35;;;;;;;15.95;11.82;;;;;;;29.76;42.17;91220.91;5011656;28;20144;-69
2022/06/17 06:54:00;;;;;;;11.30;8.45;;;;;;;30.23;42.48;91218.84;5011587;28;20502;-69
2022/06/17 06:56:26;;;;;;;11.30;6.95;;;;;;;30.33;42.56;91220.59;5011596;28;20076;-67
2022/06/17 06:58:51;;;;;;;9.07;7.22;;;;;;;30.35;42.45;91217.44;5011464;28;20056;-68
2022/06/17 07:01:17;;;;;;;10.18;7.03;;;;;;;30.98;42.39;91209.00;5011512;28;20121;-69
2022/06/17 07:03:42;;;;;;;10.73;7.13;;;;;;;33.58;39.34;91216.28;5011513;28;20025;-69
2022/06/17 07:06:08;;;;;;;9.05;5.60;;;;;;;32.99;38.77;91200.47;5011538;28;20069;-70
2022/06/17 07:08:35;;;;;;;8.95;5.78;;;;;;;32.06;42.06;91213.38;5011314;28;20034;-70
2022/06/17 07:11:02;;;;;;;13.55;6.90;;;;;;;33.72;39.55;91209.53;5011232;28;20084;-69
2022/06/17 07:13:30;;;;;;;7.00;5.30;;;;;;;36.16;35.21;91214.47;5011200;28;20025;-69
2022/06/17 07:15:57;;;;;;;7.22;5.88;;;;;;;35.71;34.55;91215.19;5011042;28;20096;-71
2022/06/17 07:18:28;;;;;;;6.75;5.18;;;;;;;35.58;37.10;91215.31;5011031;28;20021;-70
2022/06/17 07:20:56;;;;;;;5.53;4.78;;;;;;;36.40;33.27;91206.31;5011128;28;20500;-69
2022/06/17 07:23:25;;;;;;;5.07;4.55;;;;;;;36.57;33.54;91192.91;5010847;28;20404;-68
2022/06/17 07:25:51;;;;;;;5.28;4.60;;;;;;;36.42;33.03;91192.75;5011244;28;20064;-68
2022/06/17 07:28:20;;;;;;;7.15;5.78;;;;;;;35.31;34.98;91195.81;4987649;28;20381;-68
2022/06/17 07:30:48;;;;;;;7.85;4.82;;;;;;;33.60;37.35;91191.78;4990809;28;20420;-66
2022/06/17 07:33:15;;;;;;;6.22;4.60;;;;;;;35.70;35.65;91197.03;4990785;28;20022;-67
2022/06/17 07:35:42;;;;;;;6.75;5.30;;;;;;;34.26;35.98;91191.91;4991269;28;20061;-67
2022/06/17 07:41:07;;;;;;;6.45;5.00;;;;;;;34.48;36.42;91197.44;4990891;28;20121;-68
2022/06/17 07:43:33;;;;;;;7.50;5.75;;;;;;;34.04;36.31;91191.88;4993530;28;20042;-68
2022/06/17 07:46:00;;;;;;;7.45;5.13;;;;;;;34.04;37.26;91189.13;4995276;28;20577;-68
2022/06/17 07:48:27;;;;;;;6.95;5.88;;;;;;;35.41;36.80;91194.66;4995223;28;20026;-68
2022/06/17 07:50:53;;;;;;;5.03;4.50;;;;;;;35.38;35.24;91193.59;4994994;28;20030;-68
2022/06/17 07:53:19;;;;;;;6.45;4.97;;;;;;;35.77;35.47;91193.94;4994871;28;20030;-67
2022/06/17 07:55:45;;;;;;;7.47;4.90;;;;;;;33.79;38.90;91181.69;4995093;28;20034;-67
2022/06/17 07:58:12;;;;;;;6.68;4.60;;;;;;;32.81;38.87;91181.72;4994614;28;20033;-68
2022/06/17 08:00:43;;;;;;;5.93;4.80;;;;;;;31.28;40.41;91186.69;4994833;28;20050;-67
2022/06/17 08:03:10;;;;;;;6.57;5.30;;;;;;;31.00;40.65;91187.34;4994991;28;20097;-67
2022/06/17 08:05:37;;;;;;;7.25;5.47;;;;;;;32.07;40.45;91187.41;4995117;28;20038;-67
2022/06/17 08:08:04;;;;;;;6.82;5.20;;;;;;;33.18;38.66;91182.91;4994754;28;20487;-68
2022/06/17 08:10:33;;;;;;;6.32;4.82;;;;;;;32.84;38.58;91177.31;4994232;28;20169;-68
2022/06/17 08:12:59;;;;;;;8.00;5.15;;;;;;;32.16;39.74;91179.25;4993993;28;20178;-69
2022/06/17 08:15:25;;;;;;;4.82;4.20;;;;;;;32.01;38.76;91180.88;4993407;28;20582;-69
2022/06/17 08:17:52;;;;;;;7.60;4.72;;;;;;;32.44;38.83;91181.22;4994639;28;20109;-69
2022/06/17 08:20:24;;;;;;;11.90;6.28;;;;;;;33.45;38.11;91190.72;4994762;28;20023;-69
2022/06/17 08:22:49;;;;;;;6.40;4.55;;;;;;;34.27;38.07;91182.41;4993938;28;20088;-68
2022/06/17 08:25:16;;;;;;;6.00;4.10;;;;;;;36.18;35.11;91181.53;4994318;28;20129;-70
2022/06/17 08:27:48;;;;;;;4.63;3.90;;;;;;;36.63;33.24;91185.50;4993846;28;20030;-69
2022/06/17 08:30:16;;;;;;;7.90;4.50;;;;;;;38.02;32.04;91178.88;4994344;28;20030;-69
2022/06/17 08:32:45;;;;;;;4.85;3.78;;;;;;;35.41;33.58;91189.91;5008980;28;20432;-69
2022/06/17 08:35:14;;;;;;;4.15;3.72;;;;;;;34.59;35.12;91184.00;4994022;28;20022;-70
2022/06/17 08:37:41;;;;;;;10.02;4.18;;;;;;;35.06;35.39;91192.06;4994262;28;20034;-70
2022/06/17 08:40:32;;;;;;;5.38;3.85;;;;;;;35.50;33.92;91186.38;4994151;28;20034;-70
2022/06/17 08:43:28;;;;;;;4.70;4.20;;;;;;;37.44;32.35;91183.72;4987180;28;20094;-70
2022/06/17 08:46:06;;;;;;;4.60;3.50;;;;;;;37.45;31.36;91176.16;4993467;28;20061;-70
2022/06/17 08:48:54;;;;;;;3.97;3.20;;;;;;;36.12;30.54;91168.75;4994114;28;20034;-69
2022/06/17 08:51:35;;;;;;;3.70;2.75;;;;;;;35.15;31.30;91171.19;4993964;28;20053;-68
2022/06/17 08:54:38;;;;;;;7.55;4.68;;;;;;;34.32;34.64;91167.22;4993102;28;20034;-68
2022/06/17 08:57:29;;;;;;;3.85;3.28;;;;;;;32.54;34.91;91162.84;4992196;28;20186;-68
2022/06/17 09:00:18;;;;;;;4.22;3.05;;;;;;;35.94;31.34;91170.28;4993823;28;20100;-70
2022/06/17 09:03:10;;;;;;;3.72;2.85;;;;;;;36.87;29.89;91171.75;4993734;28;20039;-71
2022/06/17 09:05:41;;;;;;;3.03;2.72;;;;;;;37.64;29.26;91174.03;4992403;28;20453;-69
2022/06/17 09:08:51;;;;;;;4.05;3.30;;;;;;;35.81;30.71;91169.66;4993856;28;20507;-68
2022/06/17 09:11:39;;;;;;;4.28;3.15;;;;;;;35.06;33.21;91163.66;4972944;28;20039;-75
2022/06/17 09:14:10;;;;;;;4.18;3.75;;;;;;;33.94;34.28;91163.44;4973175;28;20441;-77
2022/06/17 09:17:03;;;;;;;3.47;3.13;;;;;;;35.80;32.36;91170.88;4973142;28;20035;-78
2022/06/17 09:19:32;;;;;;;5.38;3.45;;;;;;;34.71;33.71;91165.75;4973144;28;20086;-75
2022/06/17 09:22:14;;;;;;;3.70;3.17;;;;;;;35.72;32.21;91169.66;4972917;28;20042;-75
2022/06/17 09:24:43;;;;;;;3.53;3.00;;;;;;;34.22;33.17;91167.16;4972918;28;20093;-76
2022/06/17 09:27:15;;;;;;;4.78;3.38;;;;;;;34.77;32.00;91159.22;4972608;28;20050;-75
2022/06/17 09:30:09;;;;;;;4.50;3.20;;;;;;;34.95;32.48;91161.28;4972943;28;20416;-76
2022/06/17 09:33:03;;;;;;;4.45;3.33;;;;;;;35.00;32.07;91159.91;4972794;28;20031;-74
2022/06/17 09:35:54;;;;;;;5.68;3.58;;;;;;;34.87;31.82;91153.72;4973123;28;20057;-74
2022/06/17 09:38:32;;;;;;;3.92;3.50;;;;;;;33.25;34.80;91157.09;4972822;28;20023;-74
2022/06/17 09:41:07;;;;;;;3.47;3.15;;;;;;;34.68;33.52;91167.44;4972362;28;20536;-74
2022/06/17 09:43:43;;;;;;;8.23;4.38;;;;;;;33.67;34.99;91157.66;4972777;28;20058;-74
2022/06/17 09:46:13;;;;;;;5.72;4.35;;;;;;;28.91;39.76;91166.38;4972685;28;20093;-72
2022/06/17 09:48:41;;;;;;;8.10;5.50;;;;;;;27.88;42.58;91156.84;4972540;28;20389;-73
2022/06/17 09:51:20;;;;;;;9.55;4.47;;;;;;;27.98;45.12;91155.16;4972444;28;20142;-73
2022/06/17 09:54:00;;;;;;;8.43;5.25;;;;;;;27.51;44.65;91149.44;4972601;28;20026;-74
2022/06/17 09:56:32;;;;;;;7.25;4.90;;;;;;;25.98;47.88;91161.56;4972067;28;20034;-71
2022/06/17 09:59:24;;;;;;;5.50;4.07;;;;;;;25.72;50.08;91162.88;4972691;28;20134;-73
2022/06/17 10:01:53;;;;;;;6.57;4.53;;;;;;;25.54;50.75;91156.66;4972607;28;20444;-72
2022/06/17 10:04:19;;;;;;;8.68;4.13;;;;;;;25.60;51.64;91163.28;4972558;28;20030;-73
2022/06/17 10:07:08;;;;;;;7.28;4.95;;;;;;;28.86;45.60;91164.09;4971614;28;20585;-72
2022/06/17 10:09:33;;;;;;;7.07;5.18;;;;;;;30.07;42.84;91167.41;4941656;28;1157476;-72
2022/06/17 10:12:37;;;;;;;4.97;3.67;;;;;;;29.49;45.16;91166.94;4992664;28;20046;-72
2022/06/17 10:15:28;;;;;;;3.80;3.40;;;;;;;32.63;38.18;91159.41;4981763;28;20061;-72
2022/06/17 10:18:33;;;;;;;5.13;3.58;;;;;;;33.62;36.90;91158.25;4989707;28;20046;-73
2022/06/17 10:21:25;;;;;;;5.93;4.05;;;;;;;34.43;36.85;91162.88;4992523;28;20034;-73
2022/06/17 10:24:06;;;;;;;3.90;3.50;;;;;;;32.08;37.98;91155.91;4992528;28;20046;-72
2022/06/17 10:26:55;;;;;;;7.30;3.92;;;;;;;29.60;40.72;91155.00;4992492;28;20042;-72
2022/06/17 10:29:39;;;;;;;5.03;3.80;;;;;;;28.12;43.50;91154.97;4992406;28;20038;-73
2022/06/17 10:32:06;;;;;;;4.32;3.58;;;;;;;26.71;46.21;91147.09;4992325;28;20082;-72
2022/06/17 10:34:53;;;;;;;6.93;3.83;;;;;;;26.58;48.06;91148.75;4992334;28;20030;-72
2022/06/17 10:37:18;;;;;;;4.68;4.18;;;;;;;26.29;49.06;91154.38;4992128;28;20402;-72
2022/06/17 10:39:45;;;;;;;4.28;3.47;;;;;;;25.43;49.31;91156.72;4991030;28;20070;-72
2022/06/17 10:42:15;;;;;;;5.20;3.85;;;;;;;25.15;50.45;91163.03;4992286;28;20038;-71
2022/06/17 10:44:44;;;;;;;7.47;4.43;;;;;;;24.73;52.19;91161.09;4992164;28;20050;-72
2022/06/17 10:47:31;;;;;;;10.88;6.25;;;;;;;24.25;53.78;91153.28;4992145;28;20049;-71
2022/06/17 10:50:17;;;;;;;8.23;5.53;;;;;;;23.95;54.29;91161.78;4992178;28;20431;-71
2022/06/17 10:52:50;;;;;;;6.18;4.20;;;;;;;23.94;55.92;91152.06;4991924;28;20477;-71
2022/06/17 10:55:21;;;;;;;14.05;8.77;;;;;;;24.00;55.26;91145.13;4991942;28;20042;-72
2022/06/17 10:58:11;;;;;;;11.35;5.25;;;;;;;24.08;51.24;91146.66;4991977;28;20030;-71
2022/06/17 11:00:53;;;;;;;5.15;3.53;;;;;;;24.46;47.85;91152.56;4991729;28;20026;-71
2022/06/17 11:03:30;;;;;;;3.60;2.40;;;;;;;24.63;46.01;91148.28;4991868;28;20038;-72
2022/06/17 11:06:03;;;;;;;5.45;4.35;;;;;;;24.95;45.23;91145.53;4991844;28;20027;-72
2022/06/17 11:08:40;;;;;;;4.00;2.38;;;;;;;25.33;41.55;91152.84;4991537;28;20464;-72
2022/06/17 11:13:55;;;;;;;2.63;2.25;;;;;;;26.21;43.58;91147.44;5011478;28;20049;-73
2022/06/17 11:16:24;;;;;;;3.20;2.25;;;;;;;26.10;43.67;91146.72;5011107;28;20037;-72
2022/06/17 11:19:03;;;;;;;3.35;2.53;;;;;;;26.39;42.90;91153.56;5011302;28;20050;-72
2022/06/17 11:21:35;;;;;;;4.28;3.30;;;;;;;25.94;46.22;91147.97;5011235;28;20685;-72
2022/06/17 11:24:02;;;;;;;3.35;3.05;;;;;;;25.14;47.90;91155.25;5011273;28;20053;-71
2022/06/17 11:26:30;;;;;;;3.78;2.97;;;;;;;25.17;45.79;91149.78;5011303;28;20041;-71
2022/06/17 11:29:03;;;;;;;3.50;2.80;;;;;;;24.87;47.53;91154.88;5011233;28;20452;-71
2022/06/17 11:31:30;;;;;;;8.35;7.60;;;;;;;24.14;48.26;91150.56;5011069;28;20424;-72
2022/06/17 11:33:57;;;;;;;3.70;3.15;;;;;;;24.22;47.95;91139.69;5011082;28;20488;-72
2022/06/17 11:36:35;;;;;;;3.80;2.67;;;;;;;24.35;46.47;91140.91;5011149;28;20120;-72
2022/06/17 11:39:31;;;;;;;3.05;2.30;;;;;;;24.55;44.63;91149.44;5011069;28;20052;-72
2022/06/17 11:41:57;;;;;;;2.83;2.60;;;;;;;24.37;45.69;91144.00;5011067;28;20116;-72
2022/06/17 11:44:24;;;;;;;3.50;2.53;;;;;;;24.22;43.97;91145.13;5011185;28;20065;-72
2022/06/17 11:47:01;;;;;;;3.97;2.55;;;;;;;24.00;46.23;91147.06;5011084;28;20042;-72
2022/06/17 11:49:32;;;;;;;3.65;3.10;;;;;;;23.92;47.54;91146.25;5022222;28;20032;-71
2022/06/17 11:52:01;;;;;;;6.20;2.97;;;;;;;23.81;51.48;91146.22;5029217;28;20025;-72
2022/06/17 11:54:37;;;;;;;3.90;3.00;;;;;;;24.14;53.56;91147.84;5011416;28;20100;-71